Friday, February 23, 2018, 7:12 AM EST
Back to Local

KASH, Nashua, Boire Field Airport

Location: Nashua, NH, United States Lat: 42.782
Local Time: 7:12 AM EST (12:12 GMT) Lon: -71.515
Time Zone: US/Eastern Elev: 200 ft

Show me the last for .
Show Decoded

2018-02-23 06:56 METAR KASH 231156Z 32004KT 10SM CLR M06/M06 A3071 RMK AO2 SLP411 70001 T10611061
                 11039 21067 53005 =
2018-02-23 05:56 METAR KASH 231056Z AUTO 32003KT 10SM CLR M06/M06 A3070 RMK AO2 SLP409 T10611061
                 =
2018-02-23 04:56 METAR KASH 230956Z AUTO 29004KT 10SM CLR M04/M04 A3070 RMK AO2 SLP408 T10441044
                 =
2018-02-23 03:56 METAR KASH 230856Z AUTO 00000KT 9SM FEW080 M05/M05 A3070 RMK AO2 SLP407
                 T10501050 50000 =
2018-02-23 02:56 METAR KASH 230756Z AUTO 00000KT 10SM OVC085 M04/M04 A3071 RMK AO2 SLP411
                 T10441044 =
2018-02-23 01:59 METAR KASH 230659Z AUTO 00000KT 3SM BR FEW002 M05/M05 A3071 RMK AO2 =
2018-02-23 01:55 METAR KASH 230655Z AUTO 00000KT 1 1/4SM BR FEW002 M05/M05 A3071 RMK AO2 VIS
                 1/2V5 =
2018-02-23 01:53 METAR KASH 230653Z AUTO 00000KT 3/4SM BR VV002 M05/M05 A3071 RMK AO2 VIS 1/2V5
                 SLP411 T10501050 =
2018-02-23 01:52 METAR KASH 230652Z AUTO 00000KT 3/4SM BR VV002 M05/M05 A3071 RMK AO2 VIS 1/2V4 =
2018-02-23 01:16 METAR KASH 230616Z AUTO 00000KT 1/4SM FZFG BKN003 M06/M06 A3069 RMK AO2 =
2018-02-23 01:08 METAR KASH 230608Z AUTO 00000KT 1/2SM FZFG FEW003 SCT090 M06/M06 A3070 RMK AO2 =
2018-02-23 01:06 METAR KASH 230606Z AUTO 00000KT 3/4SM BR FEW090 M06/M06 A3069 RMK AO2 =
2018-02-23 01:04 METAR KASH 230604Z AUTO 00000KT 1 1/2SM BR SCT090 M06/M06 A3069 RMK AO2 VIS
                 1/2V5 =
2018-02-23 00:40 METAR KASH 230540Z AUTO 00000KT 3SM BR SCT090 M05/M05 A3069 RMK AO2 =
2018-02-23 00:29 METAR KASH 230529Z AUTO 00000KT 1 3/4SM BR FEW002 M05/M05 A3069 RMK AO2 =
2018-02-23 00:24 METAR KASH 230524Z AUTO 00000KT 5SM BR SCT002 M04/M04 A3069 RMK AO2 =
2018-02-23 00:04 METAR KASH 230504Z AUTO 00000KT 8SM OVC002 M04/M04 A3069 RMK AO2 =
2018-02-22 23:56 METAR KASH 230456Z AUTO 00000KT 2SM BR OVC002 M04/M04 A3069 RMK AO2 VIS 3/4V5
                 SLP406 T10391039 =
2018-02-22 23:54 METAR KASH 230454Z AUTO 00000KT 2SM BR OVC002 M04/M04 A3069 RMK AO2 VIS 3/4V4 =
2018-02-22 23:50 METAR KASH 230450Z AUTO 00000KT 1SM BR OVC002 M04/M04 A3069 RMK AO2 VIS 1/4V4 =
2018-02-22 23:38 METAR KASH 230438Z AUTO 00000KT 1/2SM FZFG OVC002 M04/M04 A3070 RMK AO2 =
2018-02-22 23:30 METAR KASH 230430Z AUTO 00000KT 3/4SM BR OVC002 M04/M04 A3071 RMK AO2 VIS 1/4V5
                 =
2018-02-22 23:28 METAR KASH 230428Z AUTO 00000KT 1 1/2SM BR OVC002 M04/M04 A3071 RMK AO2 VIS
                 1/2V5 =
2018-02-22 23:19 METAR KASH 230419Z AUTO 00000KT 3SM BR OVC002 M04/M04 A3070 RMK AO2 =
2018-02-22 23:13 METAR KASH 230413Z AUTO 30003KT 1 1/4SM BR OVC002 M04/M04 A3070 RMK AO2 VIS
                 1/2V5 =
2018-02-22 23:07 METAR KASH 230407Z AUTO 00000KT 3/4SM BR OVC002 M05/M05 A3070 RMK AO2 =
2018-02-22 23:02 METAR KASH 230402Z AUTO 00000KT 1 1/2SM BR BKN002 M05/M05 A3070 RMK AO2 VIS
                 1/2V5 =
2018-02-22 22:56 METAR KASH 230356Z AUTO 00000KT 7SM BKN002 M04/M04 A3069 RMK AO2 SLP405
                 T10441044 401111044 =
2018-02-22 22:47 METAR KASH 230347Z AUTO 00000KT 10SM SCT002 M04/M04 A3069 RMK AO2 =
2018-02-22 21:56 METAR KASH 230256Z AUTO 00000KT 6SM BR CLR M04/M04 A3070 RMK AO2 SLP406
                 T10391039 53010 =
2018-02-22 21:33 METAR KASH 230233Z AUTO 00000KT 4SM BR FEW002 M03/M03 A3069 RMK AO2 =
2018-02-22 21:23 METAR KASH 230223Z AUTO 00000KT 1 1/4SM BR FEW002 M03/M03 A3068 RMK AO2 VIS
                 1/2V5 =
2018-02-22 21:17 METAR KASH 230217Z AUTO 00000KT 3/4SM BR VV002 M03/M03 A3068 RMK AO2 VIS 1/4V5 =
2018-02-22 21:13 METAR KASH 230213Z AUTO 00000KT 1 1/4SM BR FEW003 M03/M03 A3068 RMK AO2 VIS
                 1/4V5 =
2018-02-22 21:03 METAR KASH 230203Z AUTO 00000KT 10SM SCT003 M03/M04 A3068 RMK AO2 =
2018-02-22 20:56 METAR KASH 230156Z 00000KT 9SM CLR M03/M04 A3068 RMK AO2 SLP402 T10331039 =
2018-02-22 20:40 METAR KASH 230140Z 00000KT 7SM SCT003 M03/M04 A3068 RMK AO2 =
2018-02-22 19:56 METAR KASH 230056Z 00000KT 7SM CLR M02/M03 A3067 RMK AO2 SLP400 T10221028 =
2018-02-22 18:56 METAR KASH 222356Z 00000KT 10SM FEW010 OVC110 M01/M01 A3067 RMK AO2
                 UPB07E11SNE07 SLP397 P0000 60001 T10061011 10050 21006 50003 =
2018-02-22 17:56 METAR KASH 222256Z 00000KT 6SM -SN BR OVC008 M01/M01 A3068 RMK AO2
                 UPB46E53SNE46B53 CIG 005V010 SLP402 P0000 T10061006 =
2018-02-22 16:56 METAR KASH 222156Z 31004KT 1 1/2SM -SN BR BKN006 BKN015 OVC030 00/M01 A3069 RMK
                 AO2 SLP405 P0000 T00001006 =
2018-02-22 16:34 METAR KASH 222134Z 32005KT 1 1/4SM -SN BR BKN006 OVC015 00/M01 A3068 RMK AO2
                 P0000 =
2018-02-22 16:19 METAR KASH 222119Z 34004KT 3/4SM -SN BR OVC006 00/M01 A3067 RMK AO2 P0000 =
2018-02-22 16:12 METAR KASH 222112Z 34004KT 1/2SM -SN FG OVC006 00/M01 A3067 RMK AO2 P0000 =
2018-02-22 15:56 METAR KASH 222056Z 32006KT 3/4SM -SN BR BKN006 BKN012 OVC017 00/M01 A3066 RMK
                 AO2 SLP394 P0001 60001 T00001006 51019 =
2018-02-22 15:53 METAR KASH 222053Z 31006KT 3/4SM -SN BR BKN006 OVC014 00/M01 A3066 RMK AO2 P0001
                 =
2018-02-22 15:44 METAR KASH 222044Z 33006KT 1SM -SN BR FEW006 OVC014 00/M01 A3066 RMK AO2 P0001 =
2018-02-22 15:40 METAR KASH 222040Z 33006KT 1 1/4SM -SN BR FEW008 OVC016 00/M01 A3066 RMK AO2
                 P0001 =
2018-02-22 15:31 METAR KASH 222031Z 34007KT 1SM -SN BR FEW010 OVC017 01/00 A3066 RMK AO2 P0001 =
2018-02-22 15:13 METAR KASH 222013Z 33004KT 1 1/2SM -SN BR BKN021 BKN029 OVC034 01/00 A3065 RMK
                 AO2 P0000 =
2018-02-22 15:04 METAR KASH 222004Z 33006KT 1SM -SN BR SCT023 BKN029 OVC036 01/M01 A3064 RMK AO2
                 P0000 =
2018-02-22 14:56 METAR KASH 221956Z 35005KT 2SM -SN BR SCT029 OVC036 02/M01 A3063 =
2018-02-22 14:46 METAR KASH 221946Z 35005KT 2SM -SN SCT029 OVC036 02/M01 A3063 RMK AO2 VIS 1
                 1/2V3 RAB24E35UPB35E41SNB41 P0000 =
2018-02-22 13:56 METAR KASH 221856Z VRB03KT 10SM OVC065 04/M06 A3060 =
2018-02-22 12:56 METAR KASH 221756Z 12003KT 10SM BKN065 OVC085 04/M07 A3063 =
2018-02-22 11:56 METAR KASH 221656Z 01005KT 10SM OVC090 04/M07 A3065 =
2018-02-22 10:56 METAR KASH 221556Z 33004KT 10SM OVC095 04/M07 A3068 =
2018-02-22 09:56 METAR KASH 221456Z 01005KT 10SM FEW070 BKN095 OVC110 04/M08 A3065 =
2018-02-22 08:56 METAR KASH 221356Z 31006KT 10SM OVC100 04/M08 A3065 =
2018-02-22 07:56 METAR KASH 221256Z 35005KT 10SM OVC110 03/M07 A3065 =

Support USWX by starting your Amazon purchase here.